sensor_id;sensor_type;location;lat;lon;timestamp;P1;durP1;ratioP1;P2;durP2;ratioP2
50651;SDS011;61429;52.086;5.240;2022-11-25T06:23:40;6.0;;;2.7;;
50651;SDS011;61429;52.086;5.240;2022-11-25T06:26:53;5.9;;;2.5;;
50651;SDS011;61429;52.086;5.240;2022-11-25T06:28:29;5.4;;;2.6;;
50651;SDS011;61429;52.086;5.240;2022-11-25T06:30:06;4.8;;;2.5;;
50651;SDS011;61429;52.086;5.240;2022-11-25T06:33:18;7.2;;;2.8;;
50651;SDS011;61429;52.086;5.240;2022-11-25T06:34:55;5.7;;;2.5;;
50651;SDS011;61429;52.086;5.240;2022-11-25T06:36:31;6.2;;;2.7;;
50651;SDS011;61429;52.086;5.240;2022-11-25T06:38:07;5.2;;;2.6;;
50651;SDS011;61429;52.086;5.240;2022-11-25T06:41:19;7.5;;;3.3;;
50651;SDS011;61429;52.086;5.240;2022-11-25T06:42:57;5.9;;;2.8;;
50651;SDS011;61429;52.086;5.240;2022-11-25T06:44:34;7.3;;;3.1;;
50651;SDS011;61429;52.086;5.240;2022-11-25T06:47:51;6.1;;;2.9;;
50651;SDS011;61429;52.086;5.240;2022-11-25T06:49:28;5.4;;;2.8;;
50651;SDS011;61429;52.086;5.240;2022-11-25T06:51:05;6.1;;;3.1;;
50651;SDS011;61429;52.086;5.240;2022-11-25T06:52:46;8.71;;;4.41;;
50651;SDS011;61429;52.086;5.240;2022-11-25T06:56:02;8.5;;;3.6;;
50651;SDS011;61429;52.086;5.240;2022-11-25T06:57:45;8.31;;;3.7;;
50651;SDS011;61429;52.086;5.240;2022-11-25T06:59:21;7.2;;;3.5;;
50651;SDS011;61429;52.086;5.240;2022-11-25T07:02:37;7.8;;;4.1;;
50651;SDS011;61429;52.086;5.240;2022-11-25T07:04:13;6.9;;;3.7;;
50651;SDS011;61429;52.086;5.240;2022-11-25T07:05:49;7.2;;;4.0;;
50651;SDS011;61429;52.086;5.240;2022-11-25T07:07:25;7.4;;;3.7;;
50651;SDS011;61429;52.086;5.240;2022-11-25T07:10:40;8.4;;;3.9;;
50651;SDS011;61429;52.086;5.240;2022-11-25T07:12:16;6.5;;;3.3;;
50651;SDS011;61429;52.086;5.240;2022-11-25T07:13:52;6.7;;;3.8;;
50651;SDS011;61429;52.086;5.240;2022-11-25T07:17:09;6.7;;;3.8;;
50651;SDS011;61429;52.086;5.240;2022-11-25T07:18:46;6.7;;;3.6;;
50651;SDS011;61429;52.086;5.240;2022-11-25T07:20:24;8.6;;;3.9;;
50651;SDS011;61429;52.086;5.240;2022-11-25T07:23:37;7.9;;;4.0;;
50651;SDS011;61429;52.086;5.240;2022-11-25T07:25:16;8.5;;;4.2;;
50651;SDS011;61429;52.086;5.240;2022-11-25T07:26:52;12.5;;;4.91;;
50651;SDS011;61429;52.086;5.240;2022-11-25T07:28:28;8.81;;;4.3;;
50651;SDS011;61429;52.086;5.240;2022-11-25T07:31:43;8.31;;;4.41;;
50651;SDS011;61429;52.086;5.240;2022-11-25T07:33:20;9.81;;;4.61;;
50651;SDS011;61429;52.086;5.240;2022-11-25T07:34:57;9.1;;;4.61;;
50651;SDS011;61429;52.086;5.240;2022-11-25T07:38:10;8.1;;;4.41;;
50651;SDS011;61429;52.086;5.240;2022-11-25T07:39:47;7.2;;;3.9;;
50651;SDS011;61429;52.086;5.240;2022-11-25T07:41:23;7.9;;;4.2;;
50651;SDS011;61429;52.086;5.240;2022-11-25T07:43:02;8.1;;;4.61;;
50651;SDS011;61429;52.086;5.240;2022-11-25T07:46:16;7.7;;;4.41;;
50651;SDS011;61429;52.086;5.240;2022-11-25T07:47:54;8.81;;;4.7;;
50651;SDS011;61429;52.086;5.240;2022-11-25T07:49:31;9.0;;;4.61;;
50651;SDS011;61429;52.086;5.240;2022-11-25T07:52:49;9.4;;;5.2;;
50651;SDS011;61429;52.086;5.240;2022-11-25T07:54:25;9.4;;;4.5;;
50651;SDS011;61429;52.086;5.240;2022-11-25T07:56:02;12.6;;;5.0;;
50651;SDS011;61429;52.086;5.240;2022-11-25T07:57:38;10.9;;;5.4;;
50651;SDS011;61429;52.086;5.240;2022-11-25T08:00:54;11.5;;;4.91;;
50651;SDS011;61429;52.086;5.240;2022-11-25T08:02:31;8.5;;;4.2;;
50651;SDS011;61429;52.086;5.240;2022-11-25T08:04:08;7.1;;;3.6;;
50651;SDS011;61429;52.086;5.240;2022-11-25T08:07:23;8.6;;;4.41;;
50651;SDS011;61429;52.086;5.240;2022-11-25T08:08:59;8.5;;;4.8;;
50651;SDS011;61429;52.086;5.240;2022-11-25T08:10:38;8.5;;;4.91;;
50651;SDS011;61429;52.086;5.240;2022-11-25T08:12:14;8.9;;;4.7;;
50651;SDS011;61429;52.086;5.240;2022-11-25T08:15:28;6.8;;;4.2;;
50651;SDS011;61429;52.086;5.240;2022-11-25T08:17:05;12.5;;;4.91;;
50651;SDS011;61429;52.086;5.240;2022-11-25T08:18:41;10.3;;;5.6;;
50651;SDS011;61429;52.086;5.240;2022-11-25T08:21:54;12.5;;;5.9;;
50651;SDS011;61429;52.086;5.240;2022-11-25T08:23:31;11.5;;;5.9;;
50651;SDS011;61429;52.086;5.240;2022-11-25T08:25:08;9.21;;;5.6;;
50651;SDS011;61429;52.086;5.240;2022-11-25T08:28:22;9.5;;;5.5;;
50651;SDS011;61429;52.086;5.240;2022-11-25T08:30:00;12.6;;;6.1;;
50651;SDS011;61429;52.086;5.240;2022-11-25T08:31:36;10.0;;;6.2;;
50651;SDS011;61429;52.086;5.240;2022-11-25T08:33:14;11.4;;;5.8;;
50651;SDS011;61429;52.086;5.240;2022-11-25T08:36:27;9.71;;;5.6;;
50651;SDS011;61429;52.086;5.240;2022-11-25T08:38:07;9.9;;;5.2;;
50651;SDS011;61429;52.086;5.240;2022-11-25T08:39:50;9.81;;;5.2;;
50651;SDS011;61429;52.086;5.240;2022-11-25T08:43:06;10.4;;;5.5;;
50651;SDS011;61429;52.086;5.240;2022-11-25T08:44:42;9.71;;;5.5;;
50651;SDS011;61429;52.086;5.240;2022-11-25T08:46:20;9.71;;;5.5;;
50651;SDS011;61429;52.086;5.240;2022-11-25T08:48:01;14.5;;;6.0;;
50651;SDS011;61429;52.086;5.240;2022-11-25T08:51:15;12.2;;;5.9;;
50651;SDS011;61429;52.086;5.240;2022-11-25T08:52:53;11.0;;;5.7;;
50651;SDS011;61429;52.086;5.240;2022-11-25T08:54:29;8.0;;;4.7;;
50651;SDS011;61429;52.086;5.240;2022-11-25T08:57:43;8.71;;;5.2;;
50651;SDS011;61429;52.086;5.240;2022-11-25T08:59:21;9.71;;;5.2;;
50651;SDS011;61429;52.086;5.240;2022-11-25T09:00:57;8.81;;;4.7;;
50651;SDS011;61429;52.086;5.240;2022-11-25T09:02:34;10.7;;;5.6;;
50651;SDS011;61429;52.086;5.240;2022-11-25T09:05:47;9.81;;;5.9;;
50651;SDS011;61429;52.086;5.240;2022-11-25T09:07:25;12.4;;;5.0;;
50651;SDS011;61429;52.086;5.240;2022-11-25T09:09:01;9.21;;;5.6;;
50651;SDS011;61429;52.086;5.240;2022-11-25T09:12:16;8.2;;;4.5;;
50651;SDS011;61429;52.086;5.240;2022-11-25T09:13:52;9.9;;;4.5;;
50651;SDS011;61429;52.086;5.240;2022-11-25T09:15:29;8.71;;;4.41;;
50651;SDS011;61429;52.086;5.240;2022-11-25T09:17:07;10.3;;;4.8;;
50651;SDS011;61429;52.086;5.240;2022-11-25T09:20:21;8.71;;;4.41;;
50651;SDS011;61429;52.086;5.240;2022-11-25T09:21:58;8.9;;;4.2;;
50651;SDS011;61429;52.086;5.240;2022-11-25T09:23:34;10.4;;;4.8;;
50651;SDS011;61429;52.086;5.240;2022-11-25T09:26:48;10.0;;;4.5;;
50651;SDS011;61429;52.086;5.240;2022-11-25T09:28:25;7.8;;;4.3;;
50651;SDS011;61429;52.086;5.240;2022-11-25T09:30:02;8.6;;;4.91;;
50651;SDS011;61429;52.086;5.240;2022-11-25T09:33:15;9.5;;;4.3;;
50651;SDS011;61429;52.086;5.240;2022-11-25T09:34:52;7.6;;;4.41;;
50651;SDS011;61429;52.086;5.240;2022-11-25T09:36:28;8.31;;;4.61;;
50651;SDS011;61429;52.086;5.240;2022-11-25T09:38:05;10.6;;;4.8;;
50651;SDS011;61429;52.086;5.240;2022-11-25T09:46:20;10.0;;;4.41;;
50651;SDS011;61429;52.086;5.240;2022-11-25T09:48:18;7.9;;;4.1;;
50651;SDS011;61429;52.086;5.240;2022-11-25T09:50:13;6.9;;;4.0;;
50651;SDS011;61429;52.086;5.240;2022-11-25T09:52:00;10.7;;;4.5;;
50651;SDS011;61429;52.086;5.240;2022-11-25T09:53:49;8.5;;;3.9;;
50651;SDS011;61429;52.086;5.240;2022-11-25T09:55:29;9.81;;;4.3;;
50651;SDS011;61429;52.086;5.240;2022-11-25T09:57:16;7.5;;;3.7;;
50651;SDS011;61429;52.086;5.240;2022-11-25T09:58:58;7.5;;;4.0;;
50651;SDS011;61429;52.086;5.240;2022-11-25T10:02:20;7.9;;;4.0;;
50651;SDS011;61429;52.086;5.240;2022-11-25T10:04:03;7.7;;;4.1;;
50651;SDS011;61429;52.086;5.240;2022-11-25T10:05:48;8.81;;;4.1;;
50651;SDS011;61429;52.086;5.240;2022-11-25T10:07:33;7.1;;;3.9;;
50651;SDS011;61429;52.086;5.240;2022-11-25T10:10:57;6.6;;;3.9;;
50651;SDS011;61429;52.086;5.240;2022-11-25T10:12:39;9.31;;;4.0;;
50651;SDS011;61429;52.086;5.240;2022-11-25T10:14:23;9.5;;;4.2;;
50651;SDS011;61429;52.086;5.240;2022-11-25T10:16:13;9.21;;;4.3;;
50651;SDS011;61429;52.086;5.240;2022-11-25T10:18:10;7.1;;;4.0;;
50651;SDS011;61429;52.086;5.240;2022-11-25T10:19:56;8.5;;;4.41;;
50651;SDS011;61429;52.086;5.240;2022-11-25T10:23:17;9.31;;;4.41;;
50651;SDS011;61429;52.086;5.240;2022-11-25T10:25:05;10.0;;;4.2;;
50651;SDS011;61429;52.086;5.240;2022-11-25T10:26:51;8.4;;;4.61;;
50651;SDS011;61429;52.086;5.240;2022-11-25T10:28:35;8.81;;;4.41;;
50651;SDS011;61429;52.086;5.240;2022-11-25T10:31:58;10.4;;;4.61;;
50651;SDS011;61429;52.086;5.240;2022-11-25T10:33:54;9.21;;;4.5;;
50651;SDS011;61429;52.086;5.240;2022-11-25T10:35:34;8.2;;;4.3;;
50651;SDS011;61429;52.086;5.240;2022-11-25T10:39:06;10.4;;;4.61;;
50651;SDS011;61429;52.086;5.240;2022-11-25T10:40:48;9.4;;;5.0;;
50651;SDS011;61429;52.086;5.240;2022-11-25T10:44:04;11.7;;;5.3;;
50651;SDS011;61429;52.086;5.240;2022-11-25T10:46:09;10.8;;;5.11;;
50651;SDS011;61429;52.086;5.240;2022-11-25T10:47:57;10.5;;;4.91;;
50651;SDS011;61429;52.086;5.240;2022-11-25T10:49:59;11.4;;;5.11;;
50651;SDS011;61429;52.086;5.240;2022-11-25T10:51:45;9.21;;;4.91;;
50651;SDS011;61429;52.086;5.240;2022-11-25T10:53:23;10.8;;;5.11;;
50651;SDS011;61429;52.086;5.240;2022-11-25T10:56:49;12.3;;;5.5;;
50651;SDS011;61429;52.086;5.240;2022-11-25T10:58:30;12.8;;;5.5;;
50651;SDS011;61429;52.086;5.240;2022-11-25T11:00:22;9.0;;;4.41;;
50651;SDS011;61429;52.086;5.240;2022-11-25T11:02:11;10.1;;;5.5;;
50651;SDS011;61429;52.086;5.240;2022-11-25T11:03:54;11.4;;;5.4;;
50651;SDS011;61429;52.086;5.240;2022-11-25T11:07:22;12.2;;;5.6;;
50651;SDS011;61429;52.086;5.240;2022-11-25T11:09:00;9.9;;;5.11;;
50651;SDS011;61429;52.086;5.240;2022-11-25T11:10:36;12.8;;;5.7;;
50651;SDS011;61429;52.086;5.240;2022-11-25T11:12:14;11.5;;;5.4;;
50651;SDS011;61429;52.086;5.240;2022-11-25T11:15:49;11.2;;;5.11;;
50651;SDS011;61429;52.086;5.240;2022-11-25T11:17:29;11.9;;;5.3;;
50651;SDS011;61429;52.086;5.240;2022-11-25T11:19:19;9.9;;;5.11;;
50651;SDS011;61429;52.086;5.240;2022-11-25T11:21:03;9.81;;;4.8;;
50651;SDS011;61429;52.086;5.240;2022-11-25T11:22:46;12.1;;;5.2;;
50651;SDS011;61429;52.086;5.240;2022-11-25T11:26:10;11.4;;;4.7;;
50651;SDS011;61429;52.086;5.240;2022-11-25T11:27:58;10.6;;;5.0;;
50651;SDS011;61429;52.086;5.240;2022-11-25T11:29:35;11.7;;;5.2;;
50651;SDS011;61429;52.086;5.240;2022-11-25T11:31:14;8.9;;;4.61;;
50651;SDS011;61429;52.086;5.240;2022-11-25T11:34:39;11.5;;;4.7;;
50651;SDS011;61429;52.086;5.240;2022-11-25T11:36:33;10.21;;;4.61;;
50651;SDS011;61429;52.086;5.240;2022-11-25T11:38:25;11.7;;;4.91;;
50651;SDS011;61429;52.086;5.240;2022-11-25T11:40:12;10.0;;;4.7;;
50651;SDS011;61429;52.086;5.240;2022-11-25T11:42:20;11.8;;;4.5;;
50651;SDS011;61429;52.086;5.240;2022-11-25T11:44:08;9.9;;;4.5;;
50651;SDS011;61429;52.086;5.240;2022-11-25T11:45:58;9.71;;;4.41;;
50651;SDS011;61429;52.086;5.240;2022-11-25T11:47:56;11.6;;;4.5;;
50651;SDS011;61429;52.086;5.240;2022-11-25T11:51:44;10.4;;;4.7;;
50651;SDS011;61429;52.086;5.240;2022-11-25T11:53:30;10.0;;;4.61;;
50651;SDS011;61429;52.086;5.240;2022-11-25T11:55:20;10.7;;;4.61;;
50651;SDS011;61429;52.086;5.240;2022-11-25T11:57:15;13.7;;;4.41;;
50651;SDS011;61429;52.086;5.240;2022-11-25T11:59:08;10.0;;;4.41;;
50651;SDS011;61429;52.086;5.240;2022-11-25T12:01:52;10.21;;;4.1;;
50651;SDS011;61429;52.086;5.240;2022-11-25T12:03:50;10.0;;;4.0;;
50651;SDS011;61429;52.086;5.240;2022-11-25T12:05:33;10.7;;;4.1;;
50651;SDS011;61429;52.086;5.240;2022-11-25T12:07:14;10.3;;;3.4;;
50651;SDS011;61429;52.086;5.240;2022-11-25T12:08:59;9.6;;;3.4;;
50651;SDS011;61429;52.086;5.240;2022-11-25T12:12:23;11.5;;;4.7;;
50651;SDS011;61429;52.086;5.240;2022-11-25T12:14:10;11.5;;;3.7;;
50651;SDS011;61429;52.086;5.240;2022-11-25T12:16:07;9.4;;;3.6;;
50651;SDS011;61429;52.086;5.240;2022-11-25T12:17:50;11.4;;;3.8;;
50651;SDS011;61429;52.086;5.240;2022-11-25T12:19:35;10.1;;;3.7;;
50651;SDS011;61429;52.086;5.240;2022-11-25T12:21:24;10.9;;;3.8;;
50651;SDS011;61429;52.086;5.240;2022-11-25T12:24:58;11.2;;;3.6;;
50651;SDS011;61429;52.086;5.240;2022-11-25T12:26:42;10.0;;;3.3;;
50651;SDS011;61429;52.086;5.240;2022-11-25T12:28:30;8.1;;;3.3;;
50651;SDS011;61429;52.086;5.240;2022-11-25T12:30:14;8.9;;;3.6;;
50651;SDS011;61429;52.086;5.240;2022-11-25T12:31:55;11.8;;;3.9;;
50651;SDS011;61429;52.086;5.240;2022-11-25T12:33:46;10.1;;;3.7;;
50651;SDS011;61429;52.086;5.240;2022-11-25T12:37:24;11.0;;;3.4;;
50651;SDS011;61429;52.086;5.240;2022-11-25T12:39:10;9.1;;;3.2;;
50651;SDS011;61429;52.086;5.240;2022-11-25T12:40:58;9.5;;;3.4;;
50651;SDS011;61429;52.086;5.240;2022-11-25T12:42:46;10.7;;;3.9;;
50651;SDS011;61429;52.086;5.240;2022-11-25T12:44:25;9.31;;;3.5;;
50651;SDS011;61429;52.086;5.240;2022-11-25T12:48:01;8.6;;;3.6;;
50651;SDS011;61429;52.086;5.240;2022-11-25T12:49:39;10.7;;;3.8;;
50651;SDS011;61429;52.086;5.240;2022-11-25T12:51:23;13.4;;;3.6;;
50651;SDS011;61429;52.086;5.240;2022-11-25T12:53:17;11.0;;;3.7;;
50651;SDS011;61429;52.086;5.240;2022-11-25T12:55:07;12.0;;;3.7;;
50651;SDS011;61429;52.086;5.240;2022-11-25T12:56:52;11.6;;;3.6;;
50651;SDS011;61429;52.086;5.240;2022-11-25T12:58:59;10.1;;;3.7;;
50651;SDS011;61429;52.086;5.240;2022-11-25T13:02:13;10.5;;;3.7;;
50651;SDS011;61429;52.086;5.240;2022-11-25T13:04:28;9.9;;;3.4;;
50651;SDS011;61429;52.086;5.240;2022-11-25T13:07:02;10.21;;;3.5;;
50651;SDS011;61429;52.086;5.240;2022-11-25T13:09:13;9.21;;;3.5;;
50651;SDS011;61429;52.086;5.240;2022-11-25T13:11:12;8.9;;;3.2;;
50651;SDS011;61429;52.086;5.240;2022-11-25T13:13:06;9.9;;;3.6;;
50651;SDS011;61429;52.086;5.240;2022-11-25T13:15:16;10.3;;;3.3;;
50651;SDS011;61429;52.086;5.240;2022-11-25T13:17:00;9.31;;;3.2;;
50651;SDS011;61429;52.086;5.240;2022-11-25T13:18:37;9.6;;;3.6;;
50651;SDS011;61429;52.086;5.240;2022-11-25T13:20:33;10.8;;;3.4;;
50651;SDS011;61429;52.086;5.240;2022-11-25T13:22:23;10.7;;;3.5;;
50651;SDS011;61429;52.086;5.240;2022-11-25T13:24:01;10.8;;;3.5;;
50651;SDS011;61429;52.086;5.240;2022-11-25T13:27:28;11.6;;;4.2;;
50651;SDS011;61429;52.086;5.240;2022-11-25T13:29:06;13.6;;;4.1;;
50651;SDS011;61429;52.086;5.240;2022-11-25T13:31:30;13.1;;;4.41;;
50651;SDS011;61429;52.086;5.240;2022-11-25T13:34:23;13.1;;;4.2;;
50651;SDS011;61429;52.086;5.240;2022-11-25T13:36:03;13.0;;;4.1;;
50651;SDS011;61429;52.086;5.240;2022-11-25T13:37:52;14.5;;;4.1;;
50651;SDS011;61429;52.086;5.240;2022-11-25T13:39:29;12.6;;;4.1;;
50651;SDS011;61429;52.086;5.240;2022-11-25T13:41:31;12.0;;;4.0;;
50651;SDS011;61429;52.086;5.240;2022-11-25T13:43:54;11.6;;;3.3;;
50651;SDS011;61429;52.086;5.240;2022-11-25T13:45:35;11.6;;;3.8;;
50651;SDS011;61429;52.086;5.240;2022-11-25T13:47:29;11.4;;;4.0;;
50651;SDS011;61429;52.086;5.240;2022-11-25T13:49:25;12.4;;;3.9;;
50651;SDS011;61429;52.086;5.240;2022-11-25T13:51:26;13.0;;;4.2;;
50651;SDS011;61429;52.086;5.240;2022-11-25T13:54:53;11.4;;;4.1;;
50651;SDS011;61429;52.086;5.240;2022-11-25T13:56:32;15.6;;;4.2;;
50651;SDS011;61429;52.086;5.240;2022-11-25T13:58:18;13.0;;;4.2;;
50651;SDS011;61429;52.086;5.240;2022-11-25T13:59:58;13.3;;;4.2;;
50651;SDS011;61429;52.086;5.240;2022-11-25T14:01:37;14.6;;;4.3;;
50651;SDS011;61429;52.086;5.240;2022-11-25T14:07:14;13.1;;;4.1;;
50651;SDS011;61429;52.086;5.240;2022-11-25T17:47:16;17.7;;;7.7;;
50651;SDS011;61429;52.086;5.240;2022-11-25T17:49:04;20.11;;;8.2;;
50651;SDS011;61429;52.086;5.240;2022-11-25T17:50:47;24.5;;;9.6;;
50651;SDS011;61429;52.086;5.240;2022-11-25T17:52:23;23.6;;;12.0;;
50651;SDS011;61429;52.086;5.240;2022-11-25T17:53:59;28.2;;;13.7;;
50651;SDS011;61429;52.086;5.240;2022-11-25T17:57:14;26.3;;;12.4;;
50651;SDS011;61429;52.086;5.240;2022-11-25T17:58:56;31.8;;;14.1;;
50651;SDS011;61429;52.086;5.240;2022-11-25T18:00:38;30.9;;;14.8;;
50651;SDS011;61429;52.086;5.240;2022-11-25T18:02:18;40.0;;;18.11;;
50651;SDS011;61429;52.086;5.240;2022-11-25T18:05:33;46.8;;;20.11;;
50651;SDS011;61429;52.086;5.240;2022-11-25T18:07:09;51.5;;;23.9;;
50651;SDS011;61429;52.086;5.240;2022-11-25T18:08:46;57.1;;;25.4;;
50651;SDS011;61429;52.086;5.240;2022-11-25T18:12:02;46.7;;;23.3;;
50651;SDS011;61429;52.086;5.240;2022-11-25T18:13:46;39.81;;;21.8;;
50651;SDS011;61429;52.086;5.240;2022-11-25T18:15:23;49.4;;;24.9;;
50651;SDS011;61429;52.086;5.240;2022-11-25T18:17:02;51.2;;;28.5;;
50651;SDS011;61429;52.086;5.240;2022-11-25T18:20:19;70.41;;;38.0;;
50651;SDS011;61429;52.086;5.240;2022-11-25T18:21:59;68.7;;;35.4;;
50651;SDS011;61429;52.086;5.240;2022-11-25T18:23:44;51.0;;;25.1;;
50651;SDS011;61429;52.086;5.240;2022-11-25T18:25:21;42.7;;;22.4;;
50651;SDS011;61429;52.086;5.240;2022-11-25T18:28:36;41.8;;;20.9;;
50651;SDS011;61429;52.086;5.240;2022-11-25T18:30:14;22.0;;;11.5;;
50651;SDS011;61429;52.086;5.240;2022-11-25T18:31:54;20.6;;;10.8;;
50651;SDS011;61429;52.086;5.240;2022-11-25T18:35:13;25.5;;;11.4;;
50651;SDS011;61429;52.086;5.240;2022-11-25T18:36:52;26.1;;;10.9;;
50651;SDS011;61429;52.086;5.240;2022-11-25T18:38:29;25.8;;;11.5;;
50651;SDS011;61429;52.086;5.240;2022-11-25T18:40:06;25.8;;;11.5;;
50651;SDS011;61429;52.086;5.240;2022-11-25T18:43:23;41.5;;;23.1;;
50651;SDS011;61429;52.086;5.240;2022-11-25T18:45:02;89.9;;;56.8;;
50651;SDS011;61429;52.086;5.240;2022-11-25T18:46:39;55.0;;;36.31;;
50651;SDS011;61429;52.086;5.240;2022-11-25T18:48:16;40.4;;;24.1;;
50651;SDS011;61429;52.086;5.240;2022-11-25T18:51:30;35.71;;;21.2;;
50651;SDS011;61429;52.086;5.240;2022-11-25T18:53:07;42.2;;;25.8;;
50651;SDS011;61429;52.086;5.240;2022-11-25T18:54:43;42.9;;;27.3;;
50651;SDS011;61429;52.086;5.240;2022-11-25T18:57:55;54.6;;;30.1;;
50651;SDS011;61429;52.086;5.240;2022-11-25T18:59:32;44.0;;;25.8;;
50651;SDS011;61429;52.086;5.240;2022-11-25T19:01:10;46.6;;;26.8;;
50651;SDS011;61429;52.086;5.240;2022-11-25T19:04:26;87.5;;;54.7;;
50651;SDS011;61429;52.086;5.240;2022-11-25T19:06:03;180.2;;;115.0;;
50651;SDS011;61429;52.086;5.240;2022-11-25T19:07:40;147.21;;;96.5;;
50651;SDS011;61429;52.086;5.240;2022-11-25T19:09:17;55.2;;;39.4;;
50651;SDS011;61429;52.086;5.240;2022-11-25T19:12:29;43.7;;;30.1;;
50651;SDS011;61429;52.086;5.240;2022-11-25T19:14:09;56.6;;;39.4;;
50651;SDS011;61429;52.086;5.240;2022-11-25T19:15:47;48.7;;;34.0;;
50651;SDS011;61429;52.086;5.240;2022-11-25T19:19:01;77.5;;;57.8;;
50651;SDS011;61429;52.086;5.240;2022-11-25T19:20:38;87.3;;;66.2;;
50651;SDS011;61429;52.086;5.240;2022-11-25T19:22:15;110.6;;;83.7;;
50651;SDS011;61429;52.086;5.240;2022-11-25T19:23:51;80.3;;;58.6;;
50651;SDS011;61429;52.086;5.240;2022-11-25T19:27:04;68.3;;;48.3;;
50651;SDS011;61429;52.086;5.240;2022-11-25T19:28:41;64.41;;;42.7;;
50651;SDS011;61429;52.086;5.240;2022-11-25T19:30:23;59.5;;;38.71;;
50651;SDS011;61429;52.086;5.240;2022-11-25T19:33:42;45.7;;;27.5;;
50651;SDS011;61429;52.086;5.240;2022-11-25T19:35:23;44.4;;;26.8;;
50651;SDS011;61429;52.086;5.240;2022-11-25T19:37:04;29.7;;;17.2;;
50651;SDS011;61429;52.086;5.240;2022-11-25T19:38:40;35.81;;;20.9;;
50651;SDS011;61429;52.086;5.240;2022-11-25T19:41:55;29.2;;;16.0;;
50651;SDS011;61429;52.086;5.240;2022-11-25T19:43:31;32.9;;;19.2;;
50651;SDS011;61429;52.086;5.240;2022-11-25T19:45:09;46.2;;;28.5;;
50651;SDS011;61429;52.086;5.240;2022-11-25T19:46:47;34.9;;;19.2;;
50651;SDS011;61429;52.086;5.240;2022-11-25T19:50:10;33.3;;;19.91;;
50651;SDS011;61429;52.086;5.240;2022-11-25T19:52:03;37.6;;;23.7;;
50651;SDS011;61429;52.086;5.240;2022-11-25T19:53:40;35.5;;;19.8;;
50651;SDS011;61429;52.086;5.240;2022-11-25T19:55:17;35.5;;;21.7;;
50651;SDS011;61429;52.086;5.240;2022-11-25T19:58:31;40.31;;;22.9;;
50651;SDS011;61429;52.086;5.240;2022-11-25T20:00:08;31.6;;;17.91;;
50651;SDS011;61429;52.086;5.240;2022-11-25T20:01:47;31.0;;;18.41;;
50651;SDS011;61429;52.086;5.240;2022-11-25T20:05:05;28.7;;;16.11;;
50651;SDS011;61429;52.086;5.240;2022-11-25T20:06:43;33.4;;;19.0;;
50651;SDS011;61429;52.086;5.240;2022-11-25T20:08:20;33.4;;;19.11;;
50651;SDS011;61429;52.086;5.240;2022-11-25T20:10:00;30.1;;;18.11;;
50651;SDS011;61429;52.086;5.240;2022-11-25T20:13:33;42.8;;;25.3;;
50651;SDS011;61429;52.086;5.240;2022-11-25T20:15:09;50.0;;;30.8;;
50651;SDS011;61429;52.086;5.240;2022-11-25T20:16:46;54.7;;;31.9;;
50651;SDS011;61429;52.086;5.240;2022-11-25T20:18:23;46.6;;;25.9;;
50651;SDS011;61429;52.086;5.240;2022-11-25T20:21:41;42.5;;;24.0;;
50651;SDS011;61429;52.086;5.240;2022-11-25T20:23:19;48.1;;;27.2;;
50651;SDS011;61429;52.086;5.240;2022-11-25T20:25:01;48.1;;;27.2;;
50651;SDS011;61429;52.086;5.240;2022-11-25T20:26:45;55.4;;;34.81;;
50651;SDS011;61429;52.086;5.240;2022-11-25T20:30:01;37.71;;;24.0;;
50651;SDS011;61429;52.086;5.240;2022-11-25T20:31:41;48.6;;;32.21;;
50651;SDS011;61429;52.086;5.240;2022-11-25T20:33:18;41.7;;;25.6;;
50651;SDS011;61429;52.086;5.240;2022-11-25T20:34:56;59.7;;;41.0;;
50651;SDS011;61429;52.086;5.240;2022-11-25T20:38:12;43.5;;;26.7;;
50651;SDS011;61429;52.086;5.240;2022-11-25T20:39:53;36.5;;;23.2;;
50651;SDS011;61429;52.086;5.240;2022-11-25T20:41:33;34.31;;;21.3;;
50651;SDS011;61429;52.086;5.240;2022-11-25T20:45:05;35.9;;;20.7;;
50651;SDS011;61429;52.086;5.240;2022-11-25T20:46:48;29.4;;;15.2;;
50651;SDS011;61429;52.086;5.240;2022-11-25T20:48:24;27.0;;;13.9;;
50651;SDS011;61429;52.086;5.240;2022-11-25T20:50:01;27.8;;;16.4;;
50651;SDS011;61429;52.086;5.240;2022-11-25T20:51:38;30.5;;;16.11;;
50651;SDS011;61429;52.086;5.240;2022-11-25T20:54:58;25.1;;;13.1;;
50651;SDS011;61429;52.086;5.240;2022-11-25T20:56:36;24.2;;;12.7;;
50651;SDS011;61429;52.086;5.240;2022-11-25T20:58:16;22.3;;;12.5;;
50651;SDS011;61429;52.086;5.240;2022-11-25T21:01:31;24.2;;;12.2;;
50651;SDS011;61429;52.086;5.240;2022-11-25T21:03:07;21.7;;;12.3;;
50651;SDS011;61429;52.086;5.240;2022-11-25T21:04:44;28.2;;;16.2;;
50651;SDS011;61429;52.086;5.240;2022-11-25T21:06:21;30.1;;;18.0;;
50651;SDS011;61429;52.086;5.240;2022-11-25T21:09:37;27.1;;;15.9;;
50651;SDS011;61429;52.086;5.240;2022-11-25T21:11:14;33.1;;;17.2;;
50651;SDS011;61429;52.086;5.240;2022-11-25T21:12:51;27.5;;;16.5;;
50651;SDS011;61429;52.086;5.240;2022-11-25T21:16:05;28.6;;;15.9;;
50651;SDS011;61429;52.086;5.240;2022-11-25T21:17:41;29.6;;;16.9;;
50651;SDS011;61429;52.086;5.240;2022-11-25T21:19:17;30.2;;;17.41;;
50651;SDS011;61429;52.086;5.240;2022-11-25T21:22:32;29.8;;;18.0;;
50651;SDS011;61429;52.086;5.240;2022-11-25T21:24:12;23.6;;;15.0;;
50651;SDS011;61429;52.086;5.240;2022-11-25T21:26:00;39.71;;;27.6;;
50651;SDS011;61429;52.086;5.240;2022-11-25T21:27:40;49.8;;;34.31;;
50651;SDS011;61429;52.086;5.240;2022-11-25T21:29:17;62.9;;;41.5;;
50651;SDS011;61429;52.086;5.240;2022-11-25T21:32:31;37.6;;;25.6;;
50651;SDS011;61429;52.086;5.240;2022-11-25T21:34:08;32.5;;;19.2;;
50651;SDS011;61429;52.086;5.240;2022-11-25T21:35:46;25.9;;;15.6;;
50651;SDS011;61429;52.086;5.240;2022-11-25T21:39:06;25.9;;;15.6;;
50651;SDS011;61429;52.086;5.240;2022-11-25T21:40:57;22.0;;;12.8;;
50651;SDS011;61429;52.086;5.240;2022-11-25T21:42:34;26.8;;;14.6;;
50651;SDS011;61429;52.086;5.240;2022-11-25T21:44:12;33.4;;;17.61;;
50651;SDS011;61429;52.086;5.240;2022-11-25T21:47:39;32.4;;;19.7;;
50651;SDS011;61429;52.086;5.240;2022-11-25T21:49:15;26.8;;;16.4;;
50651;SDS011;61429;52.086;5.240;2022-11-25T21:50:52;28.7;;;17.41;;
50651;SDS011;61429;52.086;5.240;2022-11-25T21:52:29;24.6;;;13.8;;
50651;SDS011;61429;52.086;5.240;2022-11-25T21:55:43;21.8;;;12.9;;
50651;SDS011;61429;52.086;5.240;2022-11-25T21:57:21;22.7;;;11.6;;
50651;SDS011;61429;52.086;5.240;2022-11-25T21:59:04;22.7;;;11.7;;
50651;SDS011;61429;52.086;5.240;2022-11-25T22:00:51;22.2;;;11.6;;
50651;SDS011;61429;52.086;5.240;2022-11-25T22:04:08;20.5;;;11.6;;
50651;SDS011;61429;52.086;5.240;2022-11-25T22:05:49;21.2;;;11.2;;
50651;SDS011;61429;52.086;5.240;2022-11-25T22:07:26;22.1;;;10.5;;
50651;SDS011;61429;52.086;5.240;2022-11-25T22:09:02;24.9;;;10.6;;
50651;SDS011;61429;52.086;5.240;2022-11-25T22:12:22;19.11;;;10.9;;
50651;SDS011;61429;52.086;5.240;2022-11-25T22:14:03;20.3;;;10.5;;
50651;SDS011;61429;52.086;5.240;2022-11-25T22:15:42;19.5;;;10.4;;
50651;SDS011;61429;52.086;5.240;2022-11-25T22:18:57;20.0;;;10.7;;
50651;SDS011;61429;52.086;5.240;2022-11-25T22:20:35;18.3;;;10.4;;
50651;SDS011;61429;52.086;5.240;2022-11-25T22:22:12;21.4;;;10.6;;
50651;SDS011;61429;52.086;5.240;2022-11-25T22:23:49;18.5;;;10.4;;
50651;SDS011;61429;52.086;5.240;2022-11-25T22:27:07;18.11;;;10.4;;
50651;SDS011;61429;52.086;5.240;2022-11-25T22:28:55;18.11;;;9.9;;
50651;SDS011;61429;52.086;5.240;2022-11-25T22:30:32;16.8;;;9.31;;
50651;SDS011;61429;52.086;5.240;2022-11-25T22:32:08;16.2;;;9.1;;
50651;SDS011;61429;52.086;5.240;2022-11-25T22:35:26;18.0;;;10.21;;
50651;SDS011;61429;52.086;5.240;2022-11-25T22:37:04;17.5;;;9.21;;
50651;SDS011;61429;52.086;5.240;2022-11-25T22:38:50;19.2;;;8.9;;
50651;SDS011;61429;52.086;5.240;2022-11-25T22:40:26;18.3;;;9.1;;
50651;SDS011;61429;52.086;5.240;2022-11-25T22:43:43;14.4;;;7.6;;
50651;SDS011;61429;52.086;5.240;2022-11-25T22:45:25;17.5;;;7.9;;
50651;SDS011;61429;52.086;5.240;2022-11-25T22:47:06;17.41;;;9.0;;
50651;SDS011;61429;52.086;5.240;2022-11-25T22:48:50;20.41;;;10.5;;
50651;SDS011;61429;52.086;5.240;2022-11-25T22:52:09;21.1;;;11.4;;